Time;durP1;ratioP1;P1;durP2;ratioP2;P2;SDS_P1;SDS_P2;PMS_P1;PMS_P2;Temp;Humidity;BMP_temperature;BMP_pressure;BME280_temperature;BME280_humidity;BME280_pressure;Samples;Min_cycle;Max_cycle;Signal;HPM_P1;HPM_P2
2023/01/09 00:00:07;;;;;;;;;;;23.10;41.10;;;;;;5075817;28;20283;-66
2023/01/09 00:02:32;;;;;;;;;;;23.00;40.80;;;;;;5075734;28;19916;-66
2023/01/09 00:04:58;;;;;;;;;;;23.10;41.00;;;;;;5075773;28;19916;-67
2023/01/09 00:07:24;;;;;;;;;;;23.10;41.00;;;;;;5093922;28;19916;-73
2023/01/09 00:09:49;;;;;;;;;;;23.00;41.10;;;;;;5093796;28;20378;-67
2023/01/09 00:12:15;;;;;;;;;;;23.10;40.90;;;;;;5093695;28;19916;-67
2023/01/09 00:14:40;;;;;;;;;;;23.10;41.10;;;;;;5075470;28;19916;-67
2023/01/09 00:17:06;;;;;;;;;;;23.10;41.40;;;;;;5093548;28;19924;-66
2023/01/09 00:19:31;;;;;;;;;;;23.00;41.20;;;;;;5093668;28;19927;-67
2023/01/09 00:21:57;;;;;;;;;;;23.10;41.10;;;;;;5093558;28;19920;-72
2023/01/09 00:24:22;;;;;;;;;;;23.10;41.10;;;;;;5093457;28;19947;-66
2023/01/09 00:26:48;;;;;;;;;;;23.10;41.00;;;;;;5075610;28;20368;-66
2023/01/09 00:29:13;;;;;;;;;;;23.10;41.10;;;;;;5075540;28;20355;-71
2023/01/09 00:31:39;;;;;;;;;;;23.10;41.10;;;;;;5093566;28;19946;-66
2023/01/09 00:34:06;;;;;;;;;;;23.10;41.10;;;;;;5075593;28;19927;-71
2023/01/09 00:36:32;;;;;;;;;;;23.10;41.10;;;;;;5075050;28;19920;-70
2023/01/09 00:38:57;;;;;;;;;;;23.10;41.10;;;;;;5075093;28;19931;-65
2023/01/09 00:41:26;;;;;;;;;;;23.00;41.10;;;;;;5093210;28;19920;-66
2023/01/09 00:43:53;;;;;;;;;;;23.00;41.10;;;;;;5075221;28;19920;-65
2023/01/09 00:46:20;;;;;;;;;;;23.00;41.10;;;;;;5074469;28;19924;-65
2023/01/09 00:48:47;;;;;;;;;;;22.90;41.20;;;;;;5093087;28;19995;-66
2023/01/09 00:51:13;;;;;;;;;;;22.90;41.40;;;;;;5074878;28;19924;-66
2023/01/09 00:53:40;;;;;;;;;;;22.90;41.20;;;;;;5075161;28;19924;-65
2023/01/09 00:56:07;;;;;;;;;;;22.90;41.20;;;;;;5093114;28;19938;-70
2023/01/09 00:58:33;;;;;;;;;;;22.90;41.30;;;;;;5092845;28;19981;-66
2023/01/09 01:00:59;;;;;;;;;;;22.90;41.40;;;;;;5092812;28;19920;-66
2023/01/09 01:03:25;;;;;;;;;;;22.90;41.40;;;;;;5074717;28;19920;-71
2023/01/09 01:08:36;;;;;;;;;;;22.90;41.60;;;;;;5074770;28;20016;-66
2023/01/09 01:11:04;;;;;;;;;;;22.80;41.50;;;;;;5075023;28;20336;-66
2023/01/09 01:13:30;;;;;;;;;;;22.90;41.50;;;;;;5092664;28;19985;-66
2023/01/09 01:15:55;;;;;;;;;;;22.80;41.40;;;;;;5074651;28;19924;-66
2023/01/09 01:18:21;;;;;;;;;;;22.90;41.20;;;;;;5074454;28;19928;-66
2023/01/09 01:20:46;;;;;;;;;;;22.90;41.40;;;;;;5092563;28;19930;-66
2023/01/09 01:23:12;;;;;;;;;;;22.90;41.50;;;;;;5092633;28;19973;-66
2023/01/09 01:25:39;;;;;;;;;;;22.90;41.60;;;;;;5074483;28;19926;-71
2023/01/09 01:28:05;;;;;;;;;;;22.90;41.60;;;;;;5074696;28;20016;-71
2023/01/09 01:30:30;;;;;;;;;;;22.90;41.50;;;;;;5074411;28;19927;-66
2023/01/09 01:32:56;;;;;;;;;;;22.90;41.40;;;;;;5092535;28;19924;-66
2023/01/09 01:35:22;;;;;;;;;;;22.80;41.60;;;;;;5092524;28;19974;-72
2023/01/09 01:37:48;;;;;;;;;;;22.80;41.50;;;;;;5070631;28;19925;-66
2023/01/09 01:40:15;;;;;;;;;;;22.80;41.60;;;;;;5072180;28;19928;-71
2023/01/09 01:42:44;;;;;;;;;;;22.70;41.80;;;;;;5072213;28;20037;-66
2023/01/09 01:47:54;;;;;;;;;;;22.70;41.80;;;;;;5110350;27;19945;-65
2023/01/09 01:50:26;;;;;;;;;;;22.60;41.80;;;;;;5108913;28;19926;-70
2023/01/09 01:52:58;;;;;;;;;;;22.60;41.80;;;;;;5109261;28;19920;-65
2023/01/09 01:55:24;;;;;;;;;;;22.60;42.00;;;;;;5109107;28;19927;-65
2023/01/09 01:57:51;;;;;;;;;;;22.60;42.60;;;;;;5108856;28;19920;-65
2023/01/09 02:00:19;;;;;;;;;;;22.60;41.80;;;;;;5108665;28;19920;-65
2023/01/09 02:02:45;;;;;;;;;;;22.70;41.80;;;;;;5109075;28;19963;-65
2023/01/09 02:05:11;;;;;;;;;;;22.70;41.80;;;;;;5108677;28;19970;-65
2023/01/09 02:07:36;;;;;;;;;;;22.70;41.80;;;;;;5108673;28;19930;-65
2023/01/09 02:10:02;;;;;;;;;;;22.70;41.80;;;;;;5109850;28;20356;-65
2023/01/09 02:12:28;;;;;;;;;;;22.80;41.60;;;;;;5109851;28;20282;-70
2023/01/09 02:14:59;;;;;;;;;;;22.70;41.50;;;;;;5108504;28;20006;-65
2023/01/09 02:17:45;;;;;;;;;;;22.80;41.60;;;;;;5109725;28;19950;-71
2023/01/09 02:31:25;;;;;;;;;;;22.90;41.50;;;;;;5089979;28;19913;-65
2023/01/09 02:34:00;;;;;;;;;;;22.80;41.50;;;;;;5088942;28;19974;-65
2023/01/09 02:39:14;;;;;;;;;;;22.70;41.60;;;;;;5115273;27;1874785;-71
2023/01/09 02:44:34;;;;;;;;;;;22.70;41.60;;;;;;5127469;27;1870425;-65
2023/01/09 02:47:02;;;;;;;;;;;22.70;41.70;;;;;;5174804;27;20262;-65
2023/01/09 02:49:28;;;;;;;;;;;22.60;41.70;;;;;;5174767;27;19953;-65
2023/01/09 02:52:00;;;;;;;;;;;22.70;41.80;;;;;;5157066;27;20356;-65
2023/01/09 03:00:08;;;;;;;;;;;22.70;41.80;;;;;;5089941;28;20394;-65
2023/01/09 03:02:38;;;;;;;;;;;22.70;41.70;;;;;;5088560;28;19974;-65
2023/01/09 03:05:23;;;;;;;;;;;22.60;41.60;;;;;;5090047;28;19974;-65
2023/01/09 03:07:55;;;;;;;;;;;22.70;41.90;;;;;;5088632;28;19956;-65
2023/01/09 03:10:24;;;;;;;;;;;22.70;41.70;;;;;;5088492;28;19970;-65
2023/01/09 03:12:51;;;;;;;;;;;22.70;41.60;;;;;;5088422;28;19921;-65
2023/01/09 03:15:18;;;;;;;;;;;22.70;41.70;;;;;;5089580;28;20053;-65
2023/01/09 03:17:45;;;;;;;;;;;22.80;41.60;;;;;;5088319;28;19925;-72
2023/01/09 03:20:12;;;;;;;;;;;22.80;41.70;;;;;;5089472;28;19950;-65
2023/01/09 03:22:38;;;;;;;;;;;22.80;41.50;;;;;;5089617;28;20048;-65
2023/01/09 03:25:04;;;;;;;;;;;22.90;41.40;;;;;;5089492;28;19927;-71
2023/01/09 03:27:30;;;;;;;;;;;23.00;41.10;;;;;;5088400;28;19921;-65
2023/01/09 03:29:55;;;;;;;;;;;23.00;41.10;;;;;;5088119;28;19924;-65
2023/01/09 03:32:21;;;;;;;;;;;23.10;41.00;;;;;;5089271;28;19943;-71
2023/01/09 03:34:46;;;;;;;;;;;23.10;41.00;;;;;;5089510;28;19920;-65
2023/01/09 03:37:12;;;;;;;;;;;23.20;40.90;;;;;;5087958;28;19920;-70
2023/01/09 03:39:37;;;;;;;;;;;23.20;40.70;;;;;;5087759;28;19925;-65
2023/01/09 03:42:03;;;;;;;;;;;23.20;40.80;;;;;;5089251;28;19958;-65
2023/01/09 03:44:28;;;;;;;;;;;23.20;40.70;;;;;;5087790;28;19921;-65
2023/01/09 03:46:54;;;;;;;;;;;23.20;40.70;;;;;;5087819;28;20017;-65
2023/01/09 03:49:20;;;;;;;;;;;23.20;40.60;;;;;;5088988;28;19920;-71
2023/01/09 03:51:46;;;;;;;;;;;23.20;40.50;;;;;;5087757;28;19924;-65
2023/01/09 03:54:11;;;;;;;;;;;23.20;40.60;;;;;;5088958;28;19920;-66
2023/01/09 03:56:37;;;;;;;;;;;23.20;40.80;;;;;;5087965;28;19920;-65
2023/01/09 03:59:02;;;;;;;;;;;23.10;40.60;;;;;;5100959;28;19924;-66
2023/01/09 04:01:28;;;;;;;;;;;23.10;40.60;;;;;;5108980;28;19927;-71
2023/01/09 04:03:53;;;;;;;;;;;23.10;40.70;;;;;;5109154;28;19924;-65
2023/01/09 04:06:19;;;;;;;;;;;23.10;40.60;;;;;;5108994;28;19920;-70
2023/01/09 04:08:45;;;;;;;;;;;23.10;40.60;;;;;;5090700;28;19920;-66
2023/01/09 04:11:10;;;;;;;;;;;23.10;40.50;;;;;;5078416;28;19924;-68
2023/01/09 04:13:36;;;;;;;;;;;23.10;40.50;;;;;;5095256;28;19983;-65
2023/01/09 04:16:01;;;;;;;;;;;23.10;40.50;;;;;;5095191;28;19920;-71
2023/01/09 04:18:27;;;;;;;;;;;23.00;40.40;;;;;;5095158;28;19925;-66
2023/01/09 04:20:52;;;;;;;;;;;23.00;40.60;;;;;;5094991;28;20069;-66
2023/01/09 04:23:18;;;;;;;;;;;23.00;40.40;;;;;;5076972;28;19920;-68
2023/01/09 04:25:44;;;;;;;;;;;23.10;40.40;;;;;;5076762;28;19981;-66
2023/01/09 04:28:10;;;;;;;;;;;23.00;40.40;;;;;;5077159;28;19920;-66
2023/01/09 04:30:35;;;;;;;;;;;23.10;40.60;;;;;;5094812;28;20441;-66
2023/01/09 04:33:01;;;;;;;;;;;23.10;40.40;;;;;;5076787;28;19924;-66
2023/01/09 04:35:26;;;;;;;;;;;23.00;40.30;;;;;;5076958;28;19966;-66
2023/01/09 04:37:52;;;;;;;;;;;23.10;40.50;;;;;;5076554;28;20010;-66
2023/01/09 04:40:18;;;;;;;;;;;23.10;40.40;;;;;;5076514;28;19927;-66
2023/01/09 04:42:43;;;;;;;;;;;23.10;40.50;;;;;;5076885;28;19931;-66
2023/01/09 04:45:10;;;;;;;;;;;23.10;40.50;;;;;;5094615;28;19920;-66
2023/01/09 04:47:36;;;;;;;;;;;23.10;40.40;;;;;;5076513;28;20359;-66
2023/01/09 04:50:01;;;;;;;;;;;23.10;40.40;;;;;;5076791;28;19923;-71
2023/01/09 04:52:27;;;;;;;;;;;23.00;40.40;;;;;;5076663;28;19921;-66
2023/01/09 04:54:52;;;;;;;;;;;23.10;40.60;;;;;;5076671;28;20295;-66
2023/01/09 04:57:18;;;;;;;;;;;23.10;40.50;;;;;;5094747;28;20307;-66
2023/01/09 04:59:44;;;;;;;;;;;23.10;40.30;;;;;;5075927;28;20411;-66
2023/01/09 05:02:09;;;;;;;;;;;23.10;40.40;;;;;;5094173;28;19923;-66
2023/01/09 05:04:35;;;;;;;;;;;23.10;40.50;;;;;;5076205;28;19920;-72
2023/01/09 05:07:01;;;;;;;;;;;23.10;40.40;;;;;;5076144;28;19916;-66
2023/01/09 05:09:26;;;;;;;;;;;23.00;40.30;;;;;;5093283;28;19916;-66
2023/01/09 05:11:52;;;;;;;;;;;23.10;40.50;;;;;;5076008;28;20018;-66
2023/01/09 05:14:18;;;;;;;;;;;23.10;40.50;;;;;;5094137;28;19916;-66
2023/01/09 05:16:43;;;;;;;;;;;23.00;40.40;;;;;;5075862;28;19920;-66
2023/01/09 05:19:09;;;;;;;;;;;23.10;40.50;;;;;;5075764;28;20010;-66
2023/01/09 05:21:34;;;;;;;;;;;23.00;40.30;;;;;;5092980;28;20011;-65
2023/01/09 05:24:00;;;;;;;;;;;23.00;40.20;;;;;;5076165;28;19917;-66
2023/01/09 05:26:25;;;;;;;;;;;23.10;40.30;;;;;;5076119;28;20267;-66
2023/01/09 05:28:52;;;;;;;;;;;23.10;40.40;;;;;;5075989;28;19916;-66
2023/01/09 05:31:18;;;;;;;;;;;23.10;40.40;;;;;;5075572;28;19922;-66
2023/01/09 05:33:43;;;;;;;;;;;23.00;40.20;;;;;;5075783;28;19998;-66
2023/01/09 05:36:09;;;;;;;;;;;23.00;41.10;;;;;;5093756;28;20379;-66
2023/01/09 05:38:34;;;;;;;;;;;23.00;40.30;;;;;;5093659;28;19927;-66
2023/01/09 05:41:00;;;;;;;;;;;23.10;40.30;;;;;;5075778;28;20010;-67
2023/01/09 05:43:25;;;;;;;;;;;23.10;40.30;;;;;;5093827;28;19982;-72
2023/01/09 05:45:51;;;;;;;;;;;23.10;40.20;;;;;;5093560;28;19961;-66
2023/01/09 05:48:16;;;;;;;;;;;23.10;40.30;;;;;;5075261;28;19916;-66
2023/01/09 05:50:42;;;;;;;;;;;23.00;40.10;;;;;;5093567;28;19920;-71
2023/01/09 05:53:08;;;;;;;;;;;23.00;40.10;;;;;;5075119;28;20260;-66
2023/01/09 05:55:33;;;;;;;;;;;23.00;40.10;;;;;;5075249;28;19920;-66
2023/01/09 05:57:59;;;;;;;;;;;23.00;40.20;;;;;;5071600;28;19924;-66
2023/01/09 06:00:24;;;;;;;;;;;23.10;40.20;;;;;;5071664;28;20032;-66
2023/01/09 06:02:50;;;;;;;;;;;23.00;40.10;;;;;;5071638;28;19965;-65
2023/01/09 06:05:15;;;;;;;;;;;23.00;40.10;;;;;;5071478;28;19917;-66
2023/01/09 06:07:41;;;;;;;;;;;23.00;40.30;;;;;;5071852;28;19923;-65
2023/01/09 06:10:08;;;;;;;;;;;23.00;40.20;;;;;;5071848;28;19916;-65
2023/01/09 06:12:34;;;;;;;;;;;23.00;40.10;;;;;;5073002;28;20312;-66
2023/01/09 06:14:59;;;;;;;;;;;23.00;40.10;;;;;;5070824;28;19967;-65
2023/01/09 06:17:25;;;;;;;;;;;23.10;40.20;;;;;;5071714;28;20244;-67
2023/01/09 06:19:51;;;;;;;;;;;23.00;40.20;;;;;;5072234;28;19928;-66
2023/01/09 06:22:16;;;;;;;;;;;22.90;40.20;;;;;;5072494;28;19921;-66
2023/01/09 06:24:42;;;;;;;;;;;22.70;40.40;;;;;;5071236;28;19920;-66
2023/01/09 06:27:07;;;;;;;;;;;22.60;40.60;;;;;;5071290;28;19924;-65
2023/01/09 06:29:33;;;;;;;;;;;22.60;40.80;;;;;;5072348;28;19924;-65
2023/01/09 06:31:58;;;;;;;;;;;22.60;40.80;;;;;;5072282;28;19974;-66
2023/01/09 06:34:24;;;;;;;;;;;22.60;41.60;;;;;;5069859;28;19925;-65
2023/01/09 06:36:49;;;;;;;;;;;22.80;40.90;;;;;;5071269;28;19920;-66
2023/01/09 06:39:15;;;;;;;;;;;22.90;40.50;;;;;;5070619;28;20277;-66
2023/01/09 06:41:40;;;;;;;;;;;23.00;40.30;;;;;;5070872;28;19920;-66
2023/01/09 06:44:06;;;;;;;;;;;23.00;40.30;;;;;;5072404;28;19921;-65
2023/01/09 06:46:32;;;;;;;;;;;23.20;40.10;;;;;;5068544;28;20407;-66
2023/01/09 06:48:58;;;;;;;;;;;23.30;39.90;;;;;;5067875;28;19931;-66
2023/01/09 06:51:23;;;;;;;;;;;23.50;39.40;;;;;;5070200;28;19999;-66
2023/01/09 06:53:49;;;;;;;;;;;23.70;38.90;;;;;;5070732;28;20019;-71
2023/01/09 06:56:14;;;;;;;;;;;23.80;38.50;;;;;;5070123;28;20344;-66
2023/01/09 06:58:40;;;;;;;;;;;23.90;38.60;;;;;;5086712;28;20015;-65
2023/01/09 07:01:05;;;;;;;;;;;24.00;38.00;;;;;;5069156;28;19920;-65
2023/01/09 07:03:31;;;;;;;;;;;24.00;38.10;;;;;;5065477;28;20284;-66
2023/01/09 07:05:57;;;;;;;;;;;24.10;38.00;;;;;;5063605;28;19974;-71
2023/01/09 07:08:22;;;;;;;;;;;24.10;38.00;;;;;;5061078;28;19920;-66
2023/01/09 07:10:48;;;;;;;;;;;24.20;38.10;;;;;;5043196;28;21066;-66
2023/01/09 07:13:13;;;;;;;;;;;24.10;37.90;;;;;;5067140;28;19971;-66
2023/01/09 07:15:39;;;;;;;;;;;24.10;37.90;;;;;;5068718;28;19928;-66
2023/01/09 07:18:04;;;;;;;;;;;24.10;37.90;;;;;;5064710;28;19932;-66
2023/01/09 07:20:30;;;;;;;;;;;24.10;38.10;;;;;;5050294;28;19936;-66
2023/01/09 07:22:56;;;;;;;;;;;24.10;38.10;;;;;;5055206;28;20392;-72
2023/01/09 07:25:21;;;;;;;;;;;24.10;38.00;;;;;;5056289;28;19924;-71
2023/01/09 07:27:47;;;;;;;;;;;24.10;38.20;;;;;;5056202;28;19924;-66
2023/01/09 07:30:13;;;;;;;;;;;24.10;38.00;;;;;;5029439;28;20373;-65
2023/01/09 07:32:39;;;;;;;;;;;24.20;37.80;;;;;;5046452;28;19955;-67
2023/01/09 07:35:07;;;;;;;;;;;24.10;37.80;;;;;;5051514;28;20008;-66
2023/01/09 07:37:33;;;;;;;;;;;24.10;38.40;;;;;;5049280;28;19952;-66
2023/01/09 07:39:58;;;;;;;;;;;24.00;38.70;;;;;;5066098;28;20360;-66
2023/01/09 07:42:24;;;;;;;;;;;24.10;38.90;;;;;;5053141;28;19974;-72
2023/01/09 07:44:49;;;;;;;;;;;24.20;38.80;;;;;;5057503;28;19960;-73
2023/01/09 07:47:15;;;;;;;;;;;24.20;38.90;;;;;;5054895;28;19948;-66
2023/01/09 07:49:41;;;;;;;;;;;24.10;39.00;;;;;;5053619;28;20015;-66
2023/01/09 07:52:06;;;;;;;;;;;24.10;39.10;;;;;;5054806;28;19927;-66
2023/01/09 07:54:32;;;;;;;;;;;24.00;39.20;;;;;;5056566;28;19950;-67
2023/01/09 07:56:57;;;;;;;;;;;23.80;39.20;;;;;;5056670;28;19931;-73
2023/01/09 07:59:23;;;;;;;;;;;23.70;39.50;;;;;;5052056;28;19932;-73
2023/01/09 08:01:49;;;;;;;;;;;23.50;39.70;;;;;;5053768;28;20078;-73
2023/01/09 08:04:14;;;;;;;;;;;23.30;40.10;;;;;;5053597;28;19932;-67
2023/01/09 08:06:40;;;;;;;;;;;23.00;41.30;;;;;;5071330;28;20288;-73
2023/01/09 08:09:05;;;;;;;;;;;22.80;41.00;;;;;;5051887;28;21193;-73
2023/01/09 08:11:31;;;;;;;;;;;22.60;41.30;;;;;;5056749;28;20268;-65
2023/01/09 08:13:57;;;;;;;;;;;22.30;41.70;;;;;;5069638;28;19928;-65
2023/01/09 08:16:22;;;;;;;;;;;22.20;42.20;;;;;;5070607;28;19921;-64
2023/01/09 08:18:48;;;;;;;;;;;22.00;42.50;;;;;;5052027;28;19991;-64
2023/01/09 08:21:14;;;;;;;;;;;21.90;42.90;;;;;;5054063;28;20314;-65
2023/01/09 08:23:40;;;;;;;;;;;21.90;43.20;;;;;;5055622;28;19930;-64
2023/01/09 08:26:05;;;;;;;;;;;21.70;43.30;;;;;;5052492;28;19925;-70
2023/01/09 08:28:31;;;;;;;;;;;21.70;43.50;;;;;;5052250;28;20007;-66
2023/01/09 08:30:57;;;;;;;;;;;21.90;43.50;;;;;;5068828;28;19921;-66
2023/01/09 08:33:22;;;;;;;;;;;22.10;43.20;;;;;;5053045;28;19932;-74
2023/01/09 08:35:48;;;;;;;;;;;22.30;43.00;;;;;;5053671;28;20054;-66
2023/01/09 08:38:14;;;;;;;;;;;22.50;43.00;;;;;;5050572;28;19928;-74
2023/01/09 08:40:39;;;;;;;;;;;22.60;42.60;;;;;;5052212;28;19928;-65
2023/01/09 08:48:35;;;;;;;;;;;23.30;41.90;;;;;;5050875;28;20341;-65
2023/01/09 08:51:01;;;;;;;;;;;23.70;41.40;;;;;;5054154;28;19921;-67
2023/01/09 08:53:28;;;;;;;;;;;23.80;41.10;;;;;;5051801;28;19925;-66
2023/01/09 08:55:53;;;;;;;;;;;23.90;40.90;;;;;;5052273;28;19928;-65
2023/01/09 08:58:19;;;;;;;;;;;23.90;40.80;;;;;;5056276;28;19936;-66
2023/01/09 09:00:45;;;;;;;;;;;23.80;40.80;;;;;;5053816;28;19940;-64
2023/01/09 09:03:10;;;;;;;;;;;23.70;41.50;;;;;;5068032;28;20368;-66
2023/01/09 09:05:36;;;;;;;;;;;23.60;41.10;;;;;;5074206;28;20530;-64
2023/01/09 09:08:02;;;;;;;;;;;23.40;41.20;;;;;;5058496;28;19967;-72
2023/01/09 09:10:29;;;;;;;;;;;23.10;41.50;;;;;;5071245;28;20004;-64
2023/01/09 09:12:55;;;;;;;;;;;22.70;41.90;;;;;;5072563;28;19932;-66
2023/01/09 09:15:23;;;;;;;;;;;22.40;42.70;;;;;;5072028;28;20099;-66
2023/01/09 09:17:49;;;;;;;;;;;22.10;43.30;;;;;;5062707;28;19920;-65
2023/01/09 09:20:15;;;;;;;;;;;21.90;43.70;;;;;;5053829;28;19931;-65
2023/01/09 09:22:40;;;;;;;;;;;21.70;44.00;;;;;;5054824;28;19924;-65
2023/01/09 09:25:06;;;;;;;;;;;21.70;44.40;;;;;;5052768;28;20375;-71
2023/01/09 09:27:32;;;;;;;;;;;21.50;44.60;;;;;;5063081;28;19924;-66
2023/01/09 09:29:57;;;;;;;;;;;21.30;44.80;;;;;;5073839;28;19924;-72
2023/01/09 09:32:23;;;;;;;;;;;21.10;45.40;;;;;;5069340;28;19924;-66
2023/01/09 09:34:48;;;;;;;;;;;21.00;45.80;;;;;;5054216;28;20428;-65
2023/01/09 09:37:14;;;;;;;;;;;20.90;46.30;;;;;;5057324;28;20426;-72
2023/01/09 09:39:39;;;;;;;;;;;20.80;46.40;;;;;;5076919;28;20288;-66
2023/01/09 09:47:34;;;;;;;;;;;20.50;46.80;;;;;;5067980;28;19934;-66
2023/01/09 09:52:48;;;;;;;;;;;20.40;47.10;;;;;;5075682;27;20269;-65
2023/01/09 09:55:16;;;;;;;;;;;20.30;47.30;;;;;;5108212;27;19962;-65
2023/01/09 09:57:42;;;;;;;;;;;20.20;47.30;;;;;;5110904;27;20217;-65
2023/01/09 10:00:14;;;;;;;;;;;20.10;47.50;;;;;;5075317;28;19924;-65
2023/01/09 10:02:50;;;;;;;;;;;20.10;47.70;;;;;;5108223;27;20763;-65
2023/01/09 10:05:36;;;;;;;;;;;20.30;47.70;;;;;;5081751;28;20364;-65
2023/01/09 10:08:03;;;;;;;;;;;20.50;47.30;;;;;;5073862;28;19931;-65
2023/01/09 10:10:36;;;;;;;;;;;20.90;46.80;;;;;;5067902;28;19966;-65
2023/01/09 10:14:03;;;;;;;;;;;21.00;46.20;;;;;;5076310;28;19928;-71
2023/01/09 10:16:07;;;;;;;;;;;21.20;46.10;;;;;;5068640;28;20014;-66
2023/01/09 10:21:17;;;;;;;;;;;21.20;46.10;;;;;;5075672;27;20325;-65
2023/01/09 10:26:35;;;;;;;;;;;21.20;46.20;;;;;;5093803;27;1866906;-65
2023/01/09 10:29:14;;;;;;;;;;;21.20;46.10;;;;;;5134120;27;20038;-65
2023/01/09 10:37:08;;;;;;;;;;;21.30;46.10;;;;;;5092044;27;1873387;-65
2023/01/09 10:39:38;;;;;;;;;;;21.40;46.20;;;;;;5133624;27;19923;-65
2023/01/09 10:42:10;;;;;;;;;;;21.30;46.00;;;;;;5138854;27;19922;-66
2023/01/09 10:44:41;;;;;;;;;;;21.30;46.00;;;;;;5133149;27;19957;-66
2023/01/09 10:47:14;;;;;;;;;;;21.30;46.00;;;;;;5135781;27;19927;-70
2023/01/09 10:49:39;;;;;;;;;;;21.20;46.10;;;;;;5141537;27;19923;-72
2023/01/09 10:54:51;;;;;;;;;;;21.20;46.50;;;;;;5067780;28;20788;-75
2023/01/09 10:57:25;;;;;;;;;;;21.10;46.60;;;;;;5061614;28;19925;-72
2023/01/09 10:59:50;;;;;;;;;;;21.00;47.00;;;;;;5064264;28;19925;-71
2023/01/09 11:02:24;;;;;;;;;;;20.90;47.30;;;;;;5046007;28;19920;-65
2023/01/09 11:04:50;;;;;;;;;;;20.80;47.60;;;;;;5071009;28;19929;-65
2023/01/09 11:07:19;;;;;;;;;;;20.70;47.90;;;;;;5059073;28;19936;-66
2023/01/09 11:10:03;;;;;;;;;;;20.60;48.10;;;;;;5058015;28;20447;-66
2023/01/09 11:12:29;;;;;;;;;;;20.50;48.40;;;;;;5065081;28;19928;-70
2023/01/09 11:14:55;;;;;;;;;;;20.40;48.70;;;;;;5059895;28;19932;-65
2023/01/09 11:17:24;;;;;;;;;;;20.30;48.80;;;;;;5057112;28;19924;-66
2023/01/09 11:20:09;;;;;;;;;;;20.30;48.80;;;;;;5055108;28;20435;-66
2023/01/09 11:22:41;;;;;;;;;;;20.40;48.90;;;;;;5051800;28;19925;-65
2023/01/09 11:25:10;;;;;;;;;;;20.60;48.80;;;;;;5060627;28;19920;-65
2023/01/09 11:27:35;;;;;;;;;;;20.80;48.30;;;;;;5057438;28;19921;-65
2023/01/09 11:30:04;;;;;;;;;;;20.80;47.90;;;;;;5057315;28;19974;-66
2023/01/09 11:32:30;;;;;;;;;;;20.80;47.80;;;;;;5054578;28;19948;-65
2023/01/09 11:34:56;;;;;;;;;;;20.80;47.60;;;;;;5054262;28;19964;-68
2023/01/09 11:37:24;;;;;;;;;;;20.90;47.50;;;;;;5058788;28;19964;-66
2023/01/09 11:39:50;;;;;;;;;;;20.90;47.20;;;;;;5070600;28;19928;-68
2023/01/09 11:42:18;;;;;;;;;;;20.90;47.20;;;;;;5055653;28;19930;-65
2023/01/09 11:44:44;;;;;;;;;;;20.90;47.20;;;;;;5059001;28;19920;-67
2023/01/09 11:47:22;;;;;;;;;;;20.90;47.30;;;;;;5072029;28;19981;-66
2023/01/09 11:49:48;;;;;;;;;;;21.00;47.20;;;;;;5055928;28;19960;-67
2023/01/09 11:54:57;;;;;;;;;;;21.30;46.70;;;;;;5068286;27;19924;-64
2023/01/09 11:57:24;;;;;;;;;;;21.30;46.50;;;;;;5051302;28;20519;-72
2023/01/09 11:59:49;;;;;;;;;;;21.40;46.40;;;;;;5054915;28;19933;-66
2023/01/09 12:02:35;;;;;;;;;;;21.40;46.20;;;;;;5072084;28;19932;-64
2023/01/09 12:05:10;;;;;;;;;;;21.40;46.30;;;;;;5070329;28;20062;-64
2023/01/09 12:10:36;;;;;;;;;;;21.30;46.30;;;;;;5092069;27;20528;-70
2023/01/09 12:15:50;;;;;;;;;;;21.10;46.60;;;;;;5085588;27;20288;-64
2023/01/09 12:18:35;;;;;;;;;;;20.90;47.10;;;;;;5074825;28;19967;-64
2023/01/09 12:21:21;;;;;;;;;;;20.70;47.50;;;;;;5077885;28;19920;-64
2023/01/09 12:37:40;;;;;;;;;;;20.50;48.60;;;;;;5071378;28;19927;-65
2023/01/09 12:40:26;;;;;;;;;;;20.50;49.40;;;;;;5083774;28;19946;-63
2023/01/09 12:43:11;;;;;;;;;;;20.50;48.70;;;;;;5084639;28;19952;-63
2023/01/09 12:45:43;;;;;;;;;;;20.60;48.60;;;;;;5065960;28;20519;-64
2023/01/09 12:48:28;;;;;;;;;;;20.70;48.40;;;;;;5070462;28;20015;-64
2023/01/09 12:53:36;;;;;;;;;;;21.00;48.00;;;;;;5088808;27;1872958;-65
2023/01/09 12:56:13;;;;;;;;;;;21.10;47.90;;;;;;5121033;27;19934;-72
2023/01/09 12:58:43;;;;;;;;;;;21.10;47.60;;;;;;5118929;27;20597;-74
2023/01/09 13:01:13;;;;;;;;;;;21.20;47.60;;;;;;5120694;27;19923;-63
2023/01/09 13:06:19;;;;;;;;;;;21.30;47.30;;;;;;5056639;28;20384;-64
2023/01/09 13:08:49;;;;;;;;;;;21.30;47.40;;;;;;5050001;28;20243;-66
2023/01/09 13:11:21;;;;;;;;;;;21.20;47.50;;;;;;5046775;28;19921;-64
2023/01/09 13:13:57;;;;;;;;;;;21.20;47.60;;;;;;5049694;28;19931;-62
2023/01/09 13:16:26;;;;;;;;;;;21.20;47.60;;;;;;5057518;28;19931;-64
2023/01/09 13:18:56;;;;;;;;;;;21.20;47.50;;;;;;5054074;28;19920;-64
2023/01/09 13:21:22;;;;;;;;;;;21.20;47.50;;;;;;5050158;28;20393;-70
2023/01/09 13:26:41;;;;;;;;;;;21.10;47.60;;;;;;5087160;27;1874318;-65
2023/01/09 13:29:11;;;;;;;;;;;21.10;47.80;;;;;;5119838;27;19971;-66
2023/01/09 13:31:42;;;;;;;;;;;21.00;48.00;;;;;;5127304;27;19923;-65
2023/01/09 13:34:12;;;;;;;;;;;21.00;48.10;;;;;;5124431;27;19962;-65
2023/01/09 13:36:38;;;;;;;;;;;21.00;48.10;;;;;;5129114;27;20498;-66
2023/01/09 13:39:05;;;;;;;;;;;21.10;48.30;;;;;;5123393;27;20381;-66
2023/01/09 13:46:58;;;;;;;;;;;21.10;48.40;;;;;;5067201;28;19952;-65
2023/01/09 13:49:43;;;;;;;;;;;21.10;48.40;;;;;;5064999;28;20015;-66
2023/01/09 13:52:29;;;;;;;;;;;21.10;48.40;;;;;;5052288;28;19991;-65
2023/01/09 13:57:37;;;;;;;;;;;21.20;48.40;;;;;;5085637;27;19921;-68
2023/01/09 14:03:15;;;;;;;;;;;21.20;48.30;;;;;;5067684;28;19949;-68
2023/01/09 14:08:23;;;;;;;;;;;21.20;48.40;;;;;;5075369;28;19980;-65
2023/01/09 14:10:50;;;;;;;;;;;21.20;48.40;;;;;;5075419;28;20011;-69
2023/01/09 14:13:19;;;;;;;;;;;21.10;48.10;;;;;;5071597;28;19936;-65
2023/01/09 14:15:45;;;;;;;;;;;21.10;48.20;;;;;;5074590;28;20315;-64
2023/01/09 14:18:15;;;;;;;;;;;21.00;48.20;;;;;;5076991;28;20041;-66
2023/01/09 14:20:42;;;;;;;;;;;21.00;48.20;;;;;;5074746;28;20188;-65
2023/01/09 14:23:16;;;;;;;;;;;20.90;48.00;;;;;;5079355;28;20380;-65
2023/01/09 14:25:43;;;;;;;;;;;20.90;48.00;;;;;;5079551;28;19924;-65
2023/01/09 14:28:25;;;;;;;;;;;21.00;48.00;;;;;;5072847;28;19931;-67
2023/01/09 14:33:29;;;;;;;;;;;21.00;47.70;;;;;;5073053;27;1884536;-65
2023/01/09 14:36:15;;;;;;;;;;;21.00;47.50;;;;;;5091751;28;19923;-65
2023/01/09 14:38:50;;;;;;;;;;;21.10;47.30;;;;;;5120062;27;19919;-65
2023/01/09 14:43:59;;;;;;;;;;;21.20;46.90;;;;;;5097982;27;1865698;-67
2023/01/09 14:46:28;;;;;;;;;;;21.20;46.80;;;;;;5132317;27;19927;-65
2023/01/09 14:48:57;;;;;;;;;;;21.30;46.90;;;;;;5109369;27;19938;-64
2023/01/09 14:51:24;;;;;;;;;;;21.20;46.70;;;;;;5123586;27;19924;-66
2023/01/09 14:53:50;;;;;;;;;;;21.30;46.70;;;;;;5119975;27;20298;-67
2023/01/09 14:56:24;;;;;;;;;;;21.30;46.60;;;;;;5116400;27;19926;-69
2023/01/09 14:59:01;;;;;;;;;;;21.30;46.60;;;;;;5121368;27;19946;-69
2023/01/09 15:01:31;;;;;;;;;;;21.20;46.50;;;;;;5133812;27;19919;-68
2023/01/09 15:03:59;;;;;;;;;;;21.20;46.60;;;;;;5129924;27;19920;-69
2023/01/09 15:06:29;;;;;;;;;;;21.20;46.60;;;;;;5124221;27;19982;-67
2023/01/09 15:11:38;;;;;;;;;;;21.20;46.70;;;;;;5135401;27;20421;-66
2023/01/09 15:14:04;;;;;;;;;;;21.20;46.70;;;;;;5104858;28;19931;-66
2023/01/09 15:16:30;;;;;;;;;;;21.10;46.90;;;;;;5105553;28;20019;-65
2023/01/09 15:18:57;;;;;;;;;;;21.00;46.90;;;;;;5100263;28;20022;-65
2023/01/09 15:21:24;;;;;;;;;;;20.90;47.70;;;;;;5101197;27;19920;-65
2023/01/09 15:23:50;;;;;;;;;;;20.80;47.20;;;;;;5123783;27;19919;-65
2023/01/09 15:26:31;;;;;;;;;;;20.70;47.30;;;;;;5105694;27;19920;-65
2023/01/09 15:29:00;;;;;;;;;;;20.60;47.40;;;;;;5102444;28;19934;-65
2023/01/09 15:31:26;;;;;;;;;;;20.50;47.60;;;;;;5108720;27;20018;-66
2023/01/09 15:33:52;;;;;;;;;;;20.40;47.60;;;;;;5101942;28;20270;-65
2023/01/09 15:36:22;;;;;;;;;;;20.40;47.90;;;;;;5103201;28;19928;-66
2023/01/09 15:38:48;;;;;;;;;;;20.30;48.00;;;;;;5100533;28;20007;-66
2023/01/09 15:44:04;;;;;;;;;;;20.10;48.40;;;;;;5102145;28;19927;-67
2023/01/09 15:46:30;;;;;;;;;;;20.00;48.60;;;;;;5125886;28;19920;-66
2023/01/09 15:48:56;;;;;;;;;;;19.90;48.80;;;;;;5104959;28;19916;-68
2023/01/09 15:51:22;;;;;;;;;;;19.80;48.90;;;;;;5102398;28;19931;-66
2023/01/09 15:53:49;;;;;;;;;;;19.70;49.10;;;;;;5107142;28;20374;-66
2023/01/09 15:56:18;;;;;;;;;;;19.60;49.10;;;;;;5104411;28;19923;-66
2023/01/09 15:58:47;;;;;;;;;;;19.50;49.20;;;;;;5102013;28;19920;-66
2023/01/09 16:01:32;;;;;;;;;;;19.40;49.30;;;;;;5126403;28;19920;-66
2023/01/09 16:04:14;;;;;;;;;;;19.40;49.50;;;;;;5104257;28;19924;-67
2023/01/09 16:06:44;;;;;;;;;;;19.30;49.60;;;;;;5114468;28;19950;-66
2023/01/09 16:09:26;;;;;;;;;;;19.30;50.50;;;;;;5084551;28;20015;-66